Time;durP1;ratioP1;P1;durP2;ratioP2;P2;SDS_P1;SDS_P2;PMS_P1;PMS_P2;Temp;Humidity;BMP_temperature;BMP_pressure;BME280_temperature;BME280_humidity;BME280_pressure;Samples;Min_cycle;Max_cycle;Signal;HPM_P1;HPM_P2
2022/01/08 00:00:21;;;;;;;52.50;32.47;;;;;;;;;;5038005;28;20887;-39
2022/01/08 00:02:48;;;;;;;47.63;31.07;;;;;;;;;;5040509;28;20878;-41
2022/01/08 00:05:15;;;;;;;44.83;31.13;;;;;;;;;;5032991;28;20914;-38
2022/01/08 00:07:41;;;;;;;42.80;29.63;;;;;;;;;;5050113;28;20782;-41
2022/01/08 00:10:07;;;;;;;41.77;29.03;;;;;;;;;;5055538;28;20966;-38
2022/01/08 00:12:33;;;;;;;40.17;27.40;;;;;;;;;;5055621;28;20683;-39
2022/01/08 00:14:59;;;;;;;44.77;29.70;;;;;;;;;;5039369;28;20442;-39
2022/01/08 00:17:26;;;;;;;51.40;33.47;;;;;;;;;;5051312;28;20414;-42
2022/01/08 00:19:52;;;;;;;54.37;35.23;;;;;;;;;;5045354;28;20910;-39
2022/01/08 00:22:18;;;;;;;49.20;33.27;;;;;;;;;;5038017;28;20450;-37
2022/01/08 00:24:44;;;;;;;45.57;30.00;;;;;;;;;;5043334;28;20421;-37
2022/01/08 00:27:11;;;;;;;48.13;31.80;;;;;;;;;;5036392;28;20432;-40
2022/01/08 00:29:37;;;;;;;46.60;31.30;;;;;;;;;;5039795;28;20503;-40
2022/01/08 00:32:03;;;;;;;47.97;31.37;;;;;;;;;;5037803;28;20463;-41
2022/01/08 00:34:29;;;;;;;42.13;29.93;;;;;;;;;;5040596;28;21146;-40
2022/01/08 00:36:55;;;;;;;47.07;30.63;;;;;;;;;;5040443;28;20436;-41
2022/01/08 00:39:21;;;;;;;47.33;31.40;;;;;;;;;;5053332;28;20424;-37
2022/01/08 00:41:48;;;;;;;44.67;29.93;;;;;;;;;;5035879;28;20456;-40
2022/01/08 00:44:16;;;;;;;48.40;32.77;;;;;;;;;;5033397;28;20439;-38
2022/01/08 00:46:42;;;;;;;46.23;31.10;;;;;;;;;;5038605;28;20421;-39
2022/01/08 00:49:08;;;;;;;51.30;32.33;;;;;;;;;;5053993;28;20546;-39
2022/01/08 00:51:35;;;;;;;45.40;30.10;;;;;;;;;;5035618;28;20434;-40
2022/01/08 00:54:01;;;;;;;44.33;29.93;;;;;;;;;;5034734;28;20421;-38
2022/01/08 00:56:27;;;;;;;46.90;32.23;;;;;;;;;;5037405;28;20417;-40
2022/01/08 00:58:53;;;;;;;45.33;32.00;;;;;;;;;;5042981;28;20433;-40
2022/01/08 01:01:19;;;;;;;49.73;33.03;;;;;;;;;;5038803;28;20479;-39
2022/01/08 01:03:48;;;;;;;50.80;33.43;;;;;;;;;;5031682;28;21094;-39
2022/01/08 01:06:14;;;;;;;47.40;30.73;;;;;;;;;;5039443;28;20418;-42
2022/01/08 01:08:40;;;;;;;44.37;29.87;;;;;;;;;;5039360;28;20428;-42
2022/01/08 01:11:06;;;;;;;47.30;32.00;;;;;;;;;;5037444;28;20752;-39
2022/01/08 01:13:32;;;;;;;49.80;33.00;;;;;;;;;;5051187;28;20435;-38
2022/01/08 01:16:02;;;;;;;51.07;34.90;;;;;;;;;;5051880;28;20971;-40
2022/01/08 01:18:28;;;;;;;45.93;31.83;;;;;;;;;;5053260;28;21027;-41
2022/01/08 01:20:54;;;;;;;48.43;32.53;;;;;;;;;;5055200;28;20607;-38
2022/01/08 01:23:28;;;;;;;53.50;35.57;;;;;;;;;;5050459;28;20420;-41
2022/01/08 01:26:00;;;;;;;49.77;34.00;;;;;;;;;;5049395;28;20521;-41
2022/01/08 01:47:13;;;;;;;50.40;35.37;;;;;;;;;;5050781;28;20435;-40
2022/01/08 01:49:43;;;;;;;53.20;34.63;;;;;;;;;;5049743;28;20418;-39
2022/01/08 01:52:10;;;;;;;53.73;35.63;;;;;;;;;;5031860;28;20928;-41
2022/01/08 01:54:36;;;;;;;50.00;36.03;;;;;;;;;;5032883;28;20428;-41
2022/01/08 01:57:04;;;;;;;53.70;34.37;;;;;;;;;;5037549;28;20433;-39
2022/01/08 01:59:31;;;;;;;53.03;35.50;;;;;;;;;;5039552;28;20429;-39
2022/01/08 02:01:58;;;;;;;59.40;38.43;;;;;;;;;;5035009;28;20796;-41
2022/01/08 02:04:24;;;;;;;55.23;37.53;;;;;;;;;;5048827;28;20869;-39
2022/01/08 02:06:50;;;;;;;57.37;39.20;;;;;;;;;;5035147;28;20602;-41
2022/01/08 02:09:17;;;;;;;58.73;40.13;;;;;;;;;;5040011;28;21065;-41
2022/01/08 02:11:56;;;;;;;60.17;40.43;;;;;;;;;;5053211;28;20432;-40
2022/01/08 02:14:23;;;;;;;62.40;39.17;;;;;;;;;;5035922;28;20437;-41
2022/01/08 02:16:49;;;;;;;67.10;41.47;;;;;;;;;;5055350;28;20437;-40
2022/01/08 02:19:15;;;;;;;60.13;40.23;;;;;;;;;;5040474;28;20919;-37
2022/01/08 02:21:48;;;;;;;58.80;39.30;;;;;;;;;;5028696;28;21058;-40
2022/01/08 02:24:16;;;;;;;56.70;37.30;;;;;;;;;;5045612;28;20928;-39
2022/01/08 02:26:42;;;;;;;55.20;35.93;;;;;;;;;;5027619;28;21077;-38
2022/01/08 02:29:27;;;;;;;60.63;39.40;;;;;;;;;;5040673;28;20457;-40
2022/01/08 02:31:58;;;;;;;54.03;35.23;;;;;;;;;;5030730;28;20426;-40
2022/01/08 02:34:26;;;;;;;59.57;37.40;;;;;;;;;;5048074;28;20715;-40
2022/01/08 02:36:52;;;;;;;57.07;38.07;;;;;;;;;;5034379;28;21173;-38
2022/01/08 02:39:18;;;;;;;53.33;36.70;;;;;;;;;;5038107;28;20514;-38
2022/01/08 02:41:44;;;;;;;55.40;36.27;;;;;;;;;;5035788;28;21097;-40
2022/01/08 02:44:11;;;;;;;52.20;35.73;;;;;;;;;;5033183;28;20489;-37
2022/01/08 02:46:40;;;;;;;59.47;37.67;;;;;;;;;;5036690;28;20468;-40
2022/01/08 02:49:07;;;;;;;55.73;37.60;;;;;;;;;;5046490;28;20417;-37
2022/01/08 02:51:35;;;;;;;53.03;36.17;;;;;;;;;;5040120;28;20429;-40
2022/01/08 02:54:01;;;;;;;51.07;34.30;;;;;;;;;;5037322;28;20432;-38
2022/01/08 02:56:28;;;;;;;58.17;37.33;;;;;;;;;;5031742;28;20861;-41
2022/01/08 02:58:57;;;;;;;52.90;35.10;;;;;;;;;;5049293;28;20820;-36
2022/01/08 03:01:23;;;;;;;48.87;33.67;;;;;;;;;;5050537;28;20452;-36
2022/01/08 03:03:49;;;;;;;51.87;32.93;;;;;;;;;;5037149;28;21000;-40
2022/01/08 03:06:16;;;;;;;49.77;32.20;;;;;;;;;;5032786;28;20409;-39
2022/01/08 03:08:42;;;;;;;50.77;33.23;;;;;;;;;;5045673;28;20937;-38
2022/01/08 03:11:08;;;;;;;45.03;31.53;;;;;;;;;;5052272;28;20433;-41
2022/01/08 03:13:34;;;;;;;47.50;33.40;;;;;;;;;;5029538;28;20464;-38
2022/01/08 03:16:00;;;;;;;44.87;30.40;;;;;;;;;;5033586;28;20745;-39
2022/01/08 03:18:26;;;;;;;49.97;32.80;;;;;;;;;;5037221;28;20808;-41
2022/01/08 03:21:01;;;;;;;44.17;31.70;;;;;;;;;;5036595;28;20487;-45
2022/01/08 03:23:37;;;;;;;45.27;30.70;;;;;;;;;;5035330;28;20908;-38
2022/01/08 03:26:04;;;;;;;48.13;30.93;;;;;;;;;;5036924;28;21071;-38
2022/01/08 03:28:30;;;;;;;44.73;30.37;;;;;;;;;;5041514;28;20578;-38
2022/01/08 03:30:56;;;;;;;47.07;31.40;;;;;;;;;;5037676;28;20766;-39
2022/01/08 03:33:23;;;;;;;46.73;32.90;;;;;;;;;;5056375;28;20471;-36
2022/01/08 03:35:49;;;;;;;44.03;29.33;;;;;;;;;;5051135;28;20429;-37
2022/01/08 03:38:15;;;;;;;41.87;30.53;;;;;;;;;;5035127;28;20420;-39
2022/01/08 03:40:43;;;;;;;49.67;33.03;;;;;;;;;;5041183;28;20689;-40
2022/01/08 03:43:10;;;;;;;46.93;31.10;;;;;;;;;;5039364;28;20426;-39
2022/01/08 03:45:36;;;;;;;45.37;30.73;;;;;;;;;;5050468;28;20503;-39
2022/01/08 03:48:17;;;;;;;50.83;32.43;;;;;;;;;;5040188;28;21189;-37
2022/01/08 03:50:44;;;;;;;41.73;28.93;;;;;;;;;;5041107;28;20441;-39
2022/01/08 03:53:12;;;;;;;46.77;30.30;;;;;;;;;;5038235;28;20430;-40
2022/01/08 03:55:39;;;;;;;41.07;29.10;;;;;;;;;;5040113;28;20890;-37
2022/01/08 03:58:05;;;;;;;45.57;28.80;;;;;;;;;;5034899;28;20424;-37
2022/01/08 04:00:32;;;;;;;40.53;26.83;;;;;;;;;;5053553;28;20987;-37
2022/01/08 04:02:58;;;;;;;42.57;29.07;;;;;;;;;;5037648;28;20817;-40
2022/01/08 04:05:24;;;;;;;43.00;28.47;;;;;;;;;;5037184;28;20696;-38
2022/01/08 04:07:50;;;;;;;38.17;26.77;;;;;;;;;;5033640;28;20428;-40
2022/01/08 04:10:18;;;;;;;43.30;28.53;;;;;;;;;;5053016;28;20839;-36
2022/01/08 04:12:55;;;;;;;42.63;27.97;;;;;;;;;;5038262;28;20429;-36
2022/01/08 04:17:52;;;;;;;43.53;29.23;;;;;;;;;;5050382;28;20455;-41
2022/01/08 04:20:21;;;;;;;40.43;26.97;;;;;;;;;;5046779;28;20464;-40
2022/01/08 04:22:49;;;;;;;40.07;26.27;;;;;;;;;;5032311;28;20434;-37
2022/01/08 04:25:17;;;;;;;36.87;25.60;;;;;;;;;;5039193;28;20435;-37
2022/01/08 04:27:43;;;;;;;47.30;28.47;;;;;;;;;;5034284;28;20538;-37
2022/01/08 04:30:09;;;;;;;38.33;26.07;;;;;;;;;;5034611;28;21015;-37
2022/01/08 04:32:35;;;;;;;35.20;24.40;;;;;;;;;;5050728;28;21028;-40
2022/01/08 04:35:02;;;;;;;35.07;23.20;;;;;;;;;;5034304;28;20440;-37
2022/01/08 04:37:30;;;;;;;38.37;25.43;;;;;;;;;;5052124;28;20432;-37
2022/01/08 04:39:56;;;;;;;36.73;26.23;;;;;;;;;;5052085;28;20540;-39
2022/01/08 04:42:22;;;;;;;34.33;23.50;;;;;;;;;;5048185;28;20464;-38
2022/01/08 04:44:49;;;;;;;40.03;25.17;;;;;;;;;;5050849;28;20430;-40
2022/01/08 04:47:15;;;;;;;40.80;26.57;;;;;;;;;;5036770;28;20466;-38
2022/01/08 04:49:41;;;;;;;36.87;25.93;;;;;;;;;;5052117;28;20432;-39
2022/01/08 04:52:08;;;;;;;42.27;24.90;;;;;;;;;;5051372;28;20957;-38
2022/01/08 04:54:34;;;;;;;42.60;25.87;;;;;;;;;;5034360;28;20433;-40
2022/01/08 04:57:00;;;;;;;45.07;25.90;;;;;;;;;;5036040;28;21140;-37
2022/01/08 04:59:26;;;;;;;34.50;23.80;;;;;;;;;;5053084;28;20588;-38
2022/01/08 05:01:52;;;;;;;38.77;24.97;;;;;;;;;;5050103;28;20452;-40
2022/01/08 05:04:18;;;;;;;39.50;25.40;;;;;;;;;;5050648;28;20425;-40
2022/01/08 05:06:44;;;;;;;36.97;24.80;;;;;;;;;;5052896;28;20471;-39
2022/01/08 05:09:10;;;;;;;44.73;28.70;;;;;;;;;;5030271;28;20545;-36
2022/01/08 05:11:36;;;;;;;36.87;26.03;;;;;;;;;;5047497;28;20439;-37
2022/01/08 05:14:04;;;;;;;39.63;25.10;;;;;;;;;;5034507;28;21394;-39
2022/01/08 05:16:30;;;;;;;41.70;26.47;;;;;;;;;;5051485;28;20459;-36
2022/01/08 05:18:57;;;;;;;42.57;28.93;;;;;;;;;;5031311;28;20433;-39
2022/01/08 05:21:30;;;;;;;38.97;25.83;;;;;;;;;;5030743;28;20470;-37
2022/01/08 05:23:57;;;;;;;39.67;27.47;;;;;;;;;;5039323;28;20436;-36
2022/01/08 05:26:25;;;;;;;41.87;27.87;;;;;;;;;;5033938;28;20544;-37
2022/01/08 05:28:55;;;;;;;42.40;26.67;;;;;;;;;;5035816;28;20902;-40
2022/01/08 05:31:22;;;;;;;35.93;24.20;;;;;;;;;;5032766;28;20860;-40
2022/01/08 05:33:49;;;;;;;37.83;25.73;;;;;;;;;;5038806;28;20584;-38
2022/01/08 05:36:16;;;;;;;41.80;26.17;;;;;;;;;;5041543;28;20428;-40
2022/01/08 05:38:42;;;;;;;39.43;25.53;;;;;;;;;;5032661;28;20434;-40
2022/01/08 05:41:08;;;;;;;39.17;26.13;;;;;;;;;;5041168;28;20454;-35
2022/01/08 05:43:34;;;;;;;39.70;25.57;;;;;;;;;;5033902;28;21066;-36
2022/01/08 05:46:00;;;;;;;48.53;30.43;;;;;;;;;;5032537;28;20876;-36
2022/01/08 05:48:29;;;;;;;52.83;32.60;;;;;;;;;;5052991;28;21015;-38
2022/01/08 05:50:55;;;;;;;44.07;28.70;;;;;;;;;;5034511;28;20478;-36
2022/01/08 05:53:22;;;;;;;46.33;28.70;;;;;;;;;;5034837;28;20758;-37
2022/01/08 05:55:49;;;;;;;45.13;29.67;;;;;;;;;;5035454;28;21061;-38
2022/01/08 05:58:15;;;;;;;43.03;26.43;;;;;;;;;;5036090;28;20453;-37
2022/01/08 06:00:41;;;;;;;40.43;26.00;;;;;;;;;;5035525;28;21043;-40
2022/01/08 06:03:09;;;;;;;41.37;27.37;;;;;;;;;;5032104;28;20673;-36
2022/01/08 06:05:35;;;;;;;39.47;27.17;;;;;;;;;;5037435;28;20447;-36
2022/01/08 06:08:01;;;;;;;42.47;26.60;;;;;;;;;;5042630;28;20873;-39
2022/01/08 06:10:27;;;;;;;39.33;26.07;;;;;;;;;;5053314;28;20582;-41
2022/01/08 06:12:54;;;;;;;40.47;25.73;;;;;;;;;;5051777;28;20608;-37
2022/01/08 06:15:20;;;;;;;37.70;24.90;;;;;;;;;;5035424;28;20537;-36
2022/01/08 06:17:46;;;;;;;39.50;24.40;;;;;;;;;;5041433;28;20176;-36
2022/01/08 06:20:13;;;;;;;34.63;24.07;;;;;;;;;;5053121;28;21008;-40
2022/01/08 06:22:39;;;;;;;36.70;24.37;;;;;;;;;;5036322;28;20463;-36
2022/01/08 06:25:05;;;;;;;35.77;23.27;;;;;;;;;;5034684;28;20744;-39
2022/01/08 06:27:34;;;;;;;36.60;23.50;;;;;;;;;;5033923;28;20913;-35
2022/01/08 06:30:02;;;;;;;35.67;24.03;;;;;;;;;;5051661;28;20857;-37
2022/01/08 06:32:28;;;;;;;44.93;27.57;;;;;;;;;;5038367;28;21466;-40
2022/01/08 06:34:54;;;;;;;37.27;25.63;;;;;;;;;;5055394;28;20437;-39
2022/01/08 06:37:21;;;;;;;39.27;24.57;;;;;;;;;;5043935;28;20425;-37
2022/01/08 06:39:49;;;;;;;37.03;24.87;;;;;;;;;;5045881;28;21387;-38
2022/01/08 06:42:15;;;;;;;38.90;25.50;;;;;;;;;;5035855;28;20864;-38
2022/01/08 06:44:41;;;;;;;37.17;23.97;;;;;;;;;;5030875;28;20416;-36
2022/01/08 06:47:08;;;;;;;46.73;27.67;;;;;;;;;;5034728;28;20447;-40
2022/01/08 06:49:34;;;;;;;49.30;29.10;;;;;;;;;;5040021;28;20432;-36
2022/01/08 06:52:02;;;;;;;48.83;30.03;;;;;;;;;;5047124;28;20558;-40
2022/01/08 06:54:29;;;;;;;48.10;28.43;;;;;;;;;;5032980;28;20779;-38
2022/01/08 06:56:55;;;;;;;51.97;31.60;;;;;;;;;;5032792;28;20425;-40
2022/01/08 06:59:21;;;;;;;48.57;31.37;;;;;;;;;;5030197;28;20580;-37
2022/01/08 07:01:50;;;;;;;48.20;30.90;;;;;;;;;;5035142;28;20445;-37
2022/01/08 07:04:16;;;;;;;48.27;30.93;;;;;;;;;;5054788;28;20812;-36
2022/01/08 07:06:42;;;;;;;50.20;30.60;;;;;;;;;;5057299;28;20427;-36
2022/01/08 07:09:08;;;;;;;49.40;29.60;;;;;;;;;;5041912;28;20418;-36
2022/01/08 07:11:34;;;;;;;47.67;30.52;;;;;;;;;;5032587;28;21020;-38
2022/01/08 07:14:02;;;;;;;56.13;34.07;;;;;;;;;;5038552;28;20190;-40
2022/01/08 07:16:28;;;;;;;54.87;35.57;;;;;;;;;;5041798;28;21017;-39
2022/01/08 07:18:54;;;;;;;47.67;30.20;;;;;;;;;;5054602;28;20932;-38
2022/01/08 07:21:20;;;;;;;46.13;29.20;;;;;;;;;;5036367;28;20503;-39
2022/01/08 07:23:48;;;;;;;42.60;28.70;;;;;;;;;;5038563;28;20425;-36
2022/01/08 07:26:14;;;;;;;45.97;27.47;;;;;;;;;;5053090;28;20708;-40
2022/01/08 07:28:40;;;;;;;52.37;32.47;;;;;;;;;;5055545;28;20755;-40
2022/01/08 07:31:07;;;;;;;52.53;31.47;;;;;;;;;;5036316;28;20432;-39
2022/01/08 07:33:33;;;;;;;45.53;29.07;;;;;;;;;;5034697;28;21035;-40
2022/01/08 07:35:59;;;;;;;44.50;27.67;;;;;;;;;;5031824;28;21333;-36
2022/01/08 07:38:27;;;;;;;37.03;24.43;;;;;;;;;;5051706;28;20495;-36
2022/01/08 07:40:53;;;;;;;43.07;26.37;;;;;;;;;;5048633;28;20589;-36
2022/01/08 07:43:20;;;;;;;37.20;23.10;;;;;;;;;;5048337;28;21104;-37
2022/01/08 07:45:47;;;;;;;35.67;23.33;;;;;;;;;;5044211;28;20436;-40
2022/01/08 07:48:14;;;;;;;31.20;19.50;;;;;;;;;;5047865;28;20428;-38
2022/01/08 07:50:40;;;;;;;30.90;20.03;;;;;;;;;;5047731;28;20932;-39
2022/01/08 07:53:06;;;;;;;30.33;18.33;;;;;;;;;;5037301;28;21141;-37
2022/01/08 07:55:32;;;;;;;27.37;16.20;;;;;;;;;;5028167;28;20433;-36
2022/01/08 07:57:58;;;;;;;28.17;17.73;;;;;;;;;;5035375;28;20534;-37
2022/01/08 08:00:24;;;;;;;25.37;16.60;;;;;;;;;;5037192;28;20493;-40
2022/01/08 08:02:50;;;;;;;29.00;18.10;;;;;;;;;;5038156;28;20425;-39
2022/01/08 08:05:17;;;;;;;27.27;17.63;;;;;;;;;;5034280;28;21142;-39
2022/01/08 08:07:43;;;;;;;28.50;18.40;;;;;;;;;;5050363;28;20432;-40
2022/01/08 08:10:11;;;;;;;27.23;17.77;;;;;;;;;;5037188;28;20435;-42
2022/01/08 08:12:37;;;;;;;31.03;18.83;;;;;;;;;;5036501;28;20429;-40
2022/01/08 08:15:05;;;;;;;28.90;19.20;;;;;;;;;;5037009;28;20432;-38
2022/01/08 08:17:33;;;;;;;30.40;20.03;;;;;;;;;;5035980;28;20455;-39
2022/01/08 08:19:59;;;;;;;27.50;19.10;;;;;;;;;;5034168;28;20528;-39
2022/01/08 08:22:25;;;;;;;30.13;18.83;;;;;;;;;;5028343;28;20972;-40
2022/01/08 08:24:51;;;;;;;33.53;21.90;;;;;;;;;;5038142;28;20424;-40
2022/01/08 08:27:17;;;;;;;30.80;20.10;;;;;;;;;;5040591;28;20581;-40
2022/01/08 08:29:44;;;;;;;28.93;19.67;;;;;;;;;;5038169;28;20428;-41
2022/01/08 08:32:10;;;;;;;27.33;18.93;;;;;;;;;;5033488;28;20425;-39
2022/01/08 08:34:36;;;;;;;29.07;18.60;;;;;;;;;;5034785;28;21021;-42
2022/01/08 08:37:03;;;;;;;28.53;19.10;;;;;;;;;;5040202;28;20436;-42
2022/01/08 08:39:29;;;;;;;26.20;17.57;;;;;;;;;;5038238;28;20640;-38
2022/01/08 08:41:55;;;;;;;31.30;18.73;;;;;;;;;;5031846;28;20990;-38
2022/01/08 08:44:21;;;;;;;26.63;16.87;;;;;;;;;;5038584;28;20425;-41
2022/01/08 08:46:47;;;;;;;27.47;17.10;;;;;;;;;;5040183;28;20433;-40
2022/01/08 08:49:14;;;;;;;26.70;15.77;;;;;;;;;;5033221;28;20520;-42
2022/01/08 08:51:40;;;;;;;21.67;14.93;;;;;;;;;;5051468;28;20421;-40
2022/01/08 08:54:06;;;;;;;27.23;15.53;;;;;;;;;;5051041;28;20422;-41
2022/01/08 08:56:32;;;;;;;22.43;15.77;;;;;;;;;;5036124;28;21164;-40
2022/01/08 08:58:58;;;;;;;24.40;16.63;;;;;;;;;;5032387;28;20542;-40
2022/01/08 09:01:26;;;;;;;28.10;18.63;;;;;;;;;;5031769;28;20468;-42
2022/01/08 09:03:52;;;;;;;33.20;19.20;;;;;;;;;;5033610;28;20414;-40
2022/01/08 09:06:19;;;;;;;31.50;20.50;;;;;;;;;;5041031;28;20418;-40
2022/01/08 09:08:45;;;;;;;33.40;22.13;;;;;;;;;;5043128;28;20429;-38
2022/01/08 09:11:14;;;;;;;33.27;20.87;;;;;;;;;;5050377;28;20532;-37
2022/01/08 09:13:40;;;;;;;29.10;19.63;;;;;;;;;;5036678;28;20433;-41
2022/01/08 09:16:06;;;;;;;31.40;19.37;;;;;;;;;;5036849;28;20916;-42
2022/01/08 09:18:32;;;;;;;31.33;19.73;;;;;;;;;;5032843;28;20639;-41
2022/01/08 09:20:58;;;;;;;30.50;20.43;;;;;;;;;;5053231;28;20455;-38
2022/01/08 09:23:25;;;;;;;27.60;17.90;;;;;;;;;;5058306;28;21172;-42
2022/01/08 09:25:51;;;;;;;27.30;18.63;;;;;;;;;;5040541;28;20421;-38
2022/01/08 09:28:17;;;;;;;26.23;18.90;;;;;;;;;;5030993;28;20418;-41
2022/01/08 09:30:46;;;;;;;31.47;19.93;;;;;;;;;;5037764;28;20425;-40
2022/01/08 09:33:15;;;;;;;30.27;19.13;;;;;;;;;;5052796;28;20433;-41
2022/01/08 09:35:41;;;;;;;28.10;20.40;;;;;;;;;;5051869;28;21700;-41
2022/01/08 09:38:08;;;;;;;32.90;22.43;;;;;;;;;;5047756;28;20582;-41
2022/01/08 09:40:34;;;;;;;30.17;21.13;;;;;;;;;;5060083;28;20436;-41
2022/01/08 09:43:00;;;;;;;29.50;19.80;;;;;;;;;;5034599;28;20429;-40
2022/01/08 09:45:26;;;;;;;34.23;17.73;;;;;;;;;;5037399;28;20600;-41
2022/01/08 09:47:52;;;;;;;24.03;17.17;;;;;;;;;;5057508;28;20437;-41
2022/01/08 09:50:19;;;;;;;24.93;16.67;;;;;;;;;;5038657;28;20422;-40
2022/01/08 09:52:45;;;;;;;26.57;18.00;;;;;;;;;;5034811;28;20663;-41
2022/01/08 09:55:13;;;;;;;27.33;17.63;;;;;;;;;;5048366;28;21227;-42
2022/01/08 09:57:40;;;;;;;30.73;18.40;;;;;;;;;;5037875;28;20528;-40
2022/01/08 10:00:10;;;;;;;22.00;15.30;;;;;;;;;;5051527;28;20556;-41
2022/01/08 10:02:36;;;;;;;24.50;16.10;;;;;;;;;;5040375;28;20449;-42
2022/01/08 10:05:10;;;;;;;23.73;16.83;;;;;;;;;;5035217;28;20715;-42
2022/01/08 10:07:36;;;;;;;23.43;16.17;;;;;;;;;;5036299;28;20857;-39
2022/01/08 10:10:11;;;;;;;22.33;15.17;;;;;;;;;;5033514;28;21094;-40
2022/01/08 10:12:39;;;;;;;21.70;14.17;;;;;;;;;;5038721;28;20420;-42
2022/01/08 10:17:51;;;;;;;20.73;13.67;;;;;;;;;;5055645;28;21100;-42
2022/01/08 10:20:40;;;;;;;18.37;12.73;;;;;;;;;;5049755;28;20420;-43
2022/01/08 10:23:11;;;;;;;17.17;12.57;;;;;;;;;;5028942;28;20425;-41
2022/01/08 10:25:37;;;;;;;19.50;12.63;;;;;;;;;;5035757;28;20467;-42
2022/01/08 10:28:04;;;;;;;23.10;13.30;;;;;;;;;;5039731;28;20759;-40
2022/01/08 10:30:30;;;;;;;24.73;14.40;;;;;;;;;;5037394;28;21361;-42
2022/01/08 10:32:57;;;;;;;26.50;15.47;;;;;;;;;;5032727;28;20432;-40
2022/01/08 10:35:42;;;;;;;21.13;14.63;;;;;;;;;;5033893;28;20418;-41
2022/01/08 10:38:09;;;;;;;22.97;16.33;;;;;;;;;;5053002;28;20425;-39
2022/01/08 10:40:35;;;;;;;24.13;15.90;;;;;;;;;;5036858;28;20528;-42
2022/01/08 10:43:02;;;;;;;24.73;16.47;;;;;;;;;;5048509;28;20479;-40
2022/01/08 10:45:33;;;;;;;26.27;15.83;;;;;;;;;;5032070;28;20764;-41
2022/01/08 10:48:07;;;;;;;23.57;16.17;;;;;;;;;;5038844;28;20421;-42
2022/01/08 10:50:33;;;;;;;22.13;16.60;;;;;;;;;;5036040;28;20936;-39
2022/01/08 10:52:59;;;;;;;28.43;16.90;;;;;;;;;;5033363;28;20426;-41
2022/01/08 10:55:32;;;;;;;26.97;16.80;;;;;;;;;;5036340;28;20840;-40
2022/01/08 10:58:06;;;;;;;25.90;16.30;;;;;;;;;;5033614;28;20775;-40
2022/01/08 11:00:35;;;;;;;25.87;16.83;;;;;;;;;;5036365;28;20964;-43
2022/01/08 11:03:01;;;;;;;27.23;17.87;;;;;;;;;;5033600;28;20908;-42
2022/01/08 11:05:30;;;;;;;26.13;16.97;;;;;;;;;;5045476;28;20445;-43
2022/01/08 11:08:13;;;;;;;22.60;15.97;;;;;;;;;;5035899;28;20784;-43
2022/01/08 11:10:41;;;;;;;23.90;17.50;;;;;;;;;;5036165;28;20755;-42
2022/01/08 11:13:09;;;;;;;26.00;16.70;;;;;;;;;;5030622;28;20427;-43
2022/01/08 11:15:48;;;;;;;28.67;19.03;;;;;;;;;;5030749;28;20837;-42
2022/01/08 11:18:16;;;;;;;25.43;17.10;;;;;;;;;;5036621;28;20425;-42
2022/01/08 11:20:44;;;;;;;24.13;17.53;;;;;;;;;;5034764;28;20435;-41
2022/01/08 11:23:14;;;;;;;24.50;16.53;;;;;;;;;;5038063;28;20413;-42
2022/01/08 11:25:42;;;;;;;23.33;16.50;;;;;;;;;;5048645;28;21068;-42
2022/01/08 11:28:12;;;;;;;21.83;16.30;;;;;;;;;;5049253;28;20514;-41
2022/01/08 11:30:41;;;;;;;24.10;16.93;;;;;;;;;;5038154;28;20413;-42
2022/01/08 11:33:13;;;;;;;25.87;17.83;;;;;;;;;;5037364;28;20573;-42
2022/01/08 11:35:40;;;;;;;23.40;16.90;;;;;;;;;;5032981;28;20427;-39
2022/01/08 11:38:08;;;;;;;25.67;18.10;;;;;;;;;;5032396;28;20553;-40
2022/01/08 11:40:35;;;;;;;26.17;17.20;;;;;;;;;;5041225;28;20415;-42
2022/01/08 11:43:04;;;;;;;24.60;17.00;;;;;;;;;;5050723;28;20976;-41
2022/01/08 11:45:35;;;;;;;26.70;17.03;;;;;;;;;;5032236;28;20592;-42
2022/01/08 11:48:03;;;;;;;24.53;15.70;;;;;;;;;;5052416;28;20445;-42
2022/01/08 11:50:33;;;;;;;21.60;15.60;;;;;;;;;;5035085;28;20521;-42
2022/01/08 11:53:11;;;;;;;23.73;16.40;;;;;;;;;;5039151;28;22865;-40
2022/01/08 11:55:37;;;;;;;23.30;16.90;;;;;;;;;;5038213;28;20443;-42
2022/01/08 11:58:23;;;;;;;22.63;15.77;;;;;;;;;;5031331;28;20456;-43
2022/01/08 12:01:04;;;;;;;22.60;15.10;;;;;;;;;;5035331;28;20761;-42
2022/01/08 12:03:35;;;;;;;22.57;16.10;;;;;;;;;;5038966;28;20831;-43
2022/01/08 12:06:21;;;;;;;22.20;15.23;;;;;;;;;;5037987;28;20452;-43
2022/01/08 12:09:00;;;;;;;20.43;14.57;;;;;;;;;;5037820;28;21023;-42
2022/01/08 12:11:31;;;;;;;20.27;13.37;;;;;;;;;;5047939;28;20428;-43
2022/01/08 12:14:07;;;;;;;24.67;15.20;;;;;;;;;;5054174;28;21685;-43
2022/01/08 12:16:35;;;;;;;20.43;14.40;;;;;;;;;;5055630;28;20436;-42
2022/01/08 12:19:03;;;;;;;22.27;14.47;;;;;;;;;;5059957;28;20460;-43
2022/01/08 12:21:40;;;;;;;17.97;12.60;;;;;;;;;;5040060;28;20773;-43
2022/01/08 12:24:21;;;;;;;15.50;12.13;;;;;;;;;;5033158;28;20421;-43
2022/01/08 12:26:48;;;;;;;14.50;11.00;;;;;;;;;;5046939;28;20928;-42
2022/01/08 12:29:32;;;;;;;19.73;11.93;;;;;;;;;;5033108;28;20540;-43
2022/01/08 12:32:18;;;;;;;19.73;11.57;;;;;;;;;;5034461;28;20536;-43
2022/01/08 12:34:58;;;;;;;14.57;10.10;;;;;;;;;;5033840;28;20440;-42
2022/01/08 12:37:37;;;;;;;17.23;11.07;;;;;;;;;;5034222;28;20543;-43
2022/01/08 12:40:07;;;;;;;16.23;12.20;;;;;;;;;;5037638;28;20830;-42
2022/01/08 12:42:34;;;;;;;19.90;12.43;;;;;;;;;;5039009;28;20489;-43
2022/01/08 12:45:00;;;;;;;15.97;11.83;;;;;;;;;;5032848;28;20440;-44
2022/01/08 12:47:45;;;;;;;18.10;12.60;;;;;;;;;;5041072;28;20456;-42
2022/01/08 12:50:17;;;;;;;18.73;12.20;;;;;;;;;;5038660;28;20413;-42
2022/01/08 12:53:02;;;;;;;20.60;13.47;;;;;;;;;;5048308;28;20441;-42
2022/01/08 12:55:28;;;;;;;22.73;14.90;;;;;;;;;;5033445;28;20421;-41
2022/01/08 12:57:54;;;;;;;23.23;15.37;;;;;;;;;;5028272;28;20996;-43
2022/01/08 13:00:20;;;;;;;21.73;15.73;;;;;;;;;;5034229;28;20429;-41
2022/01/08 13:02:47;;;;;;;20.27;15.07;;;;;;;;;;5034030;28;20452;-43
2022/01/08 13:05:13;;;;;;;19.80;14.80;;;;;;;;;;5050435;28;20773;-42
2022/01/08 13:07:50;;;;;;;16.53;13.20;;;;;;;;;;5025927;28;20906;-42
2022/01/08 13:10:16;;;;;;;16.63;12.77;;;;;;;;;;5028389;28;20931;-44
2022/01/08 13:12:43;;;;;;;22.67;13.80;;;;;;;;;;5033657;28;20777;-42
2022/01/08 13:15:11;;;;;;;20.03;14.00;;;;;;;;;;5028977;28;20437;-44
2022/01/08 13:17:40;;;;;;;22.83;15.47;;;;;;;;;;5044927;28;20424;-44
2022/01/08 13:20:07;;;;;;;21.77;15.13;;;;;;;;;;5037248;28;21000;-43
2022/01/08 13:22:34;;;;;;;22.27;15.83;;;;;;;;;;5034608;28;21095;-44
2022/01/08 13:25:00;;;;;;;21.03;16.03;;;;;;;;;;5042813;28;20520;-44
2022/01/08 13:27:28;;;;;;;23.13;16.53;;;;;;;;;;5034636;28;20471;-43
2022/01/08 13:29:56;;;;;;;20.17;14.37;;;;;;;;;;5031179;28;20936;-43
2022/01/08 13:32:24;;;;;;;21.23;14.43;;;;;;;;;;5035092;28;20425;-44
2022/01/08 13:34:57;;;;;;;21.80;15.07;;;;;;;;;;5032061;28;20436;-44
2022/01/08 13:37:24;;;;;;;18.10;12.73;;;;;;;;;;5048312;28;20436;-43
2022/01/08 13:39:55;;;;;;;19.43;12.67;;;;;;;;;;5036926;28;21227;-43
2022/01/08 13:42:37;;;;;;;18.17;12.97;;;;;;;;;;5048957;28;20453;-44
2022/01/08 13:45:06;;;;;;;19.43;13.67;;;;;;;;;;5053435;28;21354;-44
2022/01/08 13:47:34;;;;;;;18.03;12.90;;;;;;;;;;5054251;28;21302;-44
2022/01/08 13:50:12;;;;;;;20.17;12.47;;;;;;;;;;5043721;28;20432;-43
2022/01/08 13:52:40;;;;;;;16.43;11.67;;;;;;;;;;5036772;28;20613;-43
2022/01/08 13:55:11;;;;;;;18.53;12.17;;;;;;;;;;5053877;28;20439;-41
2022/01/08 13:57:40;;;;;;;15.77;11.10;;;;;;;;;;5040790;28;20421;-42
2022/01/08 14:00:13;;;;;;;16.03;11.67;;;;;;;;;;5040296;28;20418;-42
2022/01/08 14:02:39;;;;;;;13.43;9.60;;;;;;;;;;5051334;28;20560;-42
2022/01/08 14:05:06;;;;;;;15.23;11.20;;;;;;;;;;5039288;28;21343;-41
2022/01/08 14:07:39;;;;;;;16.77;11.93;;;;;;;;;;5049781;28;20497;-43
2022/01/08 14:10:06;;;;;;;16.80;11.67;;;;;;;;;;5053819;28;20429;-42
2022/01/08 14:12:32;;;;;;;17.57;12.23;;;;;;;;;;5039643;28;21311;-42
2022/01/08 14:15:03;;;;;;;18.40;12.93;;;;;;;;;;5040053;28;20433;-43
2022/01/08 14:17:30;;;;;;;17.30;12.90;;;;;;;;;;5079034;22;20438;-82
2022/01/08 14:20:04;;;;;;;19.43;13.03;;;;;;;;;;5044449;28;20466;-82
2022/01/08 14:22:30;;;;;;;19.77;13.67;;;;;;;;;;5049130;28;21366;-82
2022/01/08 14:24:58;;;;;;;21.23;15.13;;;;;;;;;;5046738;28;20539;-82
2022/01/08 14:27:24;;;;;;;21.87;15.43;;;;;;;;;;5049083;28;20425;-82
2022/01/08 14:30:07;;;;;;;21.77;16.17;;;;;;;;;;5048615;28;20474;-82
2022/01/08 14:32:33;;;;;;;20.37;15.03;;;;;;;;;;5046608;28;21205;-82
2022/01/08 14:35:02;;;;;;;22.13;14.63;;;;;;;;;;5046415;28;20512;-82
2022/01/08 14:37:33;;;;;;;21.80;14.77;;;;;;;;;;5047052;28;20449;-82
2022/01/08 14:40:13;;;;;;;22.00;16.07;;;;;;;;;;5048157;28;20666;-82
2022/01/08 14:42:39;;;;;;;22.57;15.53;;;;;;;;;;5065007;28;20517;-82
2022/01/08 14:45:05;;;;;;;22.07;15.47;;;;;;;;;;5064837;28;20418;-82